createdAt,value
2019-06-26T00:00:10.339Z,99.90
2019-06-26T00:02:39.902Z,99.90
2019-06-26T00:05:09.491Z,99.90
2019-06-26T00:07:38.984Z,99.90
2019-06-26T00:10:08.485Z,99.90
2019-06-26T00:12:37.956Z,99.90
2019-06-26T00:15:08.473Z,99.90
2019-06-26T00:17:37.948Z,99.90
2019-06-26T00:20:07.452Z,99.90
2019-06-26T00:22:37.053Z,99.90
2019-06-26T00:25:07.433Z,99.90
2019-06-26T00:27:36.864Z,99.90
2019-06-26T00:30:09.353Z,99.90
2019-06-26T00:32:38.938Z,99.90
2019-06-26T00:35:08.428Z,99.90
2019-06-26T00:37:37.887Z,99.90
2019-06-26T00:40:07.585Z,99.90
2019-06-26T00:42:37.107Z,99.90
2019-06-26T00:45:07.562Z,99.90
2019-06-26T00:47:37.177Z,99.90
2019-06-26T00:50:09.637Z,99.90
2019-06-26T00:52:39.140Z,99.90
2019-06-26T00:55:08.622Z,99.90
2019-06-26T00:57:38.155Z,99.90
2019-06-26T01:00:09.567Z,99.90
2019-06-26T01:02:39.031Z,99.90
2019-06-26T01:05:10.397Z,99.90
2019-06-26T01:07:39.789Z,99.90
2019-06-26T01:10:09.571Z,99.90
2019-06-26T01:12:39.073Z,99.90
2019-06-26T01:15:08.557Z,99.90
2019-06-26T01:17:38.053Z,99.90
2019-06-26T01:20:09.087Z,99.90
2019-06-26T01:22:38.587Z,99.90
2019-06-26T01:25:08.069Z,99.90
2019-06-26T01:27:37.516Z,99.90
2019-06-26T01:30:07.581Z,99.90
2019-06-26T01:32:37.076Z,99.90
2019-06-26T01:35:08.286Z,99.90
2019-06-26T01:37:37.718Z,99.90
2019-06-26T01:40:07.582Z,99.90
2019-06-26T01:42:37.089Z,99.90
2019-06-26T01:45:09.851Z,99.90
2019-06-26T01:47:39.279Z,99.90
2019-06-26T01:50:09.569Z,99.90
2019-06-26T01:52:39.049Z,99.90
2019-06-26T01:55:08.550Z,99.90
2019-06-26T01:57:38.026Z,99.90
2019-06-26T02:00:10.035Z,99.90
2019-06-26T02:02:39.507Z,99.90
2019-06-26T02:05:09.221Z,99.90
2019-06-26T02:07:38.650Z,99.90
2019-06-26T02:10:08.245Z,99.90
2019-06-26T02:12:37.736Z,99.90
2019-06-26T02:15:07.558Z,99.90
2019-06-26T02:17:36.964Z,99.90
2019-06-26T02:20:07.771Z,99.90
2019-06-26T02:22:37.246Z,99.90
2019-06-26T02:25:07.144Z,99.90
2019-06-26T02:27:36.639Z,99.90
2019-06-26T02:30:07.864Z,99.90
2019-06-26T02:32:37.325Z,99.90
2019-06-26T02:35:10.285Z,99.90
2019-06-26T02:37:39.226Z,99.90
2019-06-26T02:40:08.810Z,99.90
2019-06-26T02:42:38.512Z,99.90
2019-06-26T02:45:08.068Z,99.90
2019-06-26T02:47:37.544Z,99.90
2019-06-26T02:50:08.625Z,99.90
2019-06-26T02:52:38.099Z,99.90
2019-06-26T02:55:07.623Z,99.90
2019-06-26T02:57:37.114Z,99.90
2019-06-26T03:00:07.266Z,99.90
2019-06-26T03:02:36.817Z,99.90
2019-06-26T03:05:19.641Z,99.90
2019-06-26T03:07:49.283Z,99.90
2019-06-26T03:10:18.761Z,99.90
2019-06-26T03:12:48.736Z,99.90
2019-06-26T03:15:19.801Z,99.90
2019-06-26T03:17:55.459Z,99.90
2019-06-26T03:20:25.241Z,99.90
2019-06-26T03:22:54.587Z,99.90
2019-06-26T03:25:24.088Z,99.90
2019-06-26T03:27:53.963Z,99.90
2019-06-26T03:30:24.944Z,99.90
2019-06-26T03:32:54.438Z,99.90
2019-06-26T03:35:23.835Z,99.90
2019-06-26T03:37:53.270Z,99.90
2019-06-26T03:40:22.837Z,99.90
2019-06-26T03:42:52.341Z,99.90
2019-06-26T03:45:26.043Z,99.90
2019-06-26T03:47:53.033Z,99.90
2019-06-26T03:50:22.532Z,99.90
2019-06-26T03:52:52.413Z,99.90
2019-06-26T03:55:21.843Z,99.90
2019-06-26T03:57:51.250Z,99.90
2019-06-26T04:00:39.819Z,99.90
2019-06-26T04:03:09.433Z,99.90
2019-06-26T04:05:38.981Z,99.90
2019-06-26T04:08:08.631Z,99.90
2019-06-26T04:10:38.111Z,99.90
2019-06-26T04:13:07.586Z,99.90
2019-06-26T04:15:42.248Z,99.90
2019-06-26T04:18:08.153Z,99.90
2019-06-26T04:20:37.660Z,99.90
2019-06-26T04:23:07.170Z,99.90
2019-06-26T04:25:38.321Z,99.90
2019-06-26T04:28:08.062Z,99.90
2019-06-26T04:30:37.499Z,99.90
2019-06-26T04:33:06.986Z,99.90
2019-06-26T04:35:36.889Z,99.90
2019-06-26T04:38:06.289Z,99.90
2019-06-26T04:40:35.759Z,99.90
2019-06-26T04:43:05.303Z,99.90
2019-06-26T04:45:34.806Z,99.90
2019-06-26T04:48:07.014Z,99.90
2019-06-26T04:50:35.697Z,99.90
2019-06-26T04:53:05.228Z,99.90
2019-06-26T04:55:34.725Z,99.90
2019-06-26T04:58:04.238Z,99.90
2019-06-26T05:00:33.735Z,99.90
2019-06-26T05:03:04.346Z,99.90
2019-06-26T05:05:39.569Z,99.90
2019-06-26T05:08:05.138Z,99.90
2019-06-26T05:10:34.987Z,99.90
2019-06-26T05:13:04.459Z,99.90
2019-06-26T05:15:34.008Z,99.90
2019-06-26T05:18:03.499Z,99.90
2019-06-26T05:20:33.039Z,99.90
2019-06-26T05:23:02.505Z,99.90
2019-06-26T05:25:32.042Z,99.90
2019-06-26T05:28:01.466Z,99.90
2019-06-26T05:30:31.057Z,99.90
2019-06-26T05:33:00.563Z,99.90
2019-06-26T05:35:30.041Z,99.90
2019-06-26T05:37:59.670Z,99.90
2019-06-26T05:40:29.067Z,99.90
2019-06-26T05:43:00.115Z,99.90
2019-06-26T05:45:29.607Z,99.90
2019-06-26T05:47:59.090Z,99.90
2019-06-26T05:50:29.510Z,99.90
2019-06-26T05:52:58.993Z,99.90
2019-06-26T05:55:28.496Z,99.90
2019-06-26T05:57:57.899Z,99.90
2019-06-26T06:00:27.302Z,99.90
2019-06-26T06:02:57.681Z,99.90
2019-06-26T06:05:27.187Z,99.90
2019-06-26T06:07:56.745Z,99.90
2019-06-26T06:10:26.251Z,99.90
2019-06-26T06:12:55.755Z,99.90
2019-06-26T06:15:25.233Z,99.90
2019-06-26T06:17:54.733Z,99.90
2019-06-26T06:20:39.368Z,99.90
2019-06-26T06:23:08.847Z,99.90
2019-06-26T06:25:38.349Z,99.90
2019-06-26T06:28:07.790Z,99.90
2019-06-26T06:30:37.269Z,99.90
2019-06-26T06:33:06.759Z,99.90
2019-06-26T06:35:36.454Z,99.90
2019-06-26T06:38:06.027Z,99.90
2019-06-26T06:40:35.558Z,99.90
2019-06-26T06:43:04.987Z,99.90
2019-06-26T06:45:34.459Z,99.90
2019-06-26T06:48:03.913Z,99.90
2019-06-26T06:50:33.683Z,99.90
2019-06-26T06:53:03.117Z,99.90
2019-06-26T06:55:32.801Z,99.90
2019-06-26T06:58:02.303Z,99.90
2019-06-26T07:00:31.710Z,99.90
2019-06-26T07:03:01.211Z,99.90
2019-06-26T07:05:31.110Z,99.90
2019-06-26T07:08:00.637Z,99.90
2019-06-26T07:10:30.377Z,99.90
2019-06-26T07:12:59.799Z,99.90
2019-06-26T07:15:29.302Z,99.90
2019-06-26T07:17:58.851Z,99.90
2019-06-26T07:20:28.345Z,99.90
2019-06-26T07:22:58.258Z,99.90
2019-06-26T07:25:27.705Z,99.90
2019-06-26T07:27:57.218Z,99.90
2019-06-26T07:30:26.689Z,99.90
2019-06-26T07:32:56.156Z,99.90
2019-06-26T07:35:25.670Z,99.90
2019-06-26T07:37:55.470Z,99.90
2019-06-26T07:40:25.013Z,99.90
2019-06-26T07:42:55.228Z,99.90
2019-06-26T07:45:24.616Z,99.90
2019-06-26T07:47:54.082Z,99.90
2019-06-26T07:50:23.583Z,99.90
2019-06-26T07:52:53.089Z,99.90
2019-06-26T07:55:22.737Z,99.90
2019-06-26T07:57:52.089Z,99.90
2019-06-26T08:00:21.610Z,99.90
2019-06-26T08:02:51.052Z,99.90
2019-06-26T08:05:20.480Z,99.90
2019-06-26T08:07:49.969Z,99.90
2019-06-26T08:10:19.462Z,99.90
2019-06-26T08:12:48.995Z,99.90
2019-06-26T08:15:18.506Z,99.90
2019-06-26T08:18:00.016Z,99.90
2019-06-26T08:20:20.064Z,99.90
2019-06-26T08:22:49.727Z,99.90
2019-06-26T08:25:19.224Z,99.90
2019-06-26T08:27:49.104Z,99.90
2019-06-26T08:30:18.613Z,99.90
2019-06-26T08:32:48.313Z,99.90
2019-06-26T08:35:37.166Z,99.90
2019-06-26T08:38:12.523Z,99.90
2019-06-26T08:40:37.797Z,99.90
2019-06-26T08:43:07.297Z,99.90
2019-06-26T08:45:36.800Z,99.90
2019-06-26T08:48:17.309Z,99.90
2019-06-26T08:50:37.422Z,99.90
2019-06-26T08:53:06.916Z,99.90
2019-06-26T08:55:36.401Z,99.90
2019-06-26T08:58:06.515Z,99.90
2019-06-26T09:00:35.974Z,99.90
2019-06-26T09:03:05.844Z,99.90
2019-06-26T09:05:47.600Z,99.90
2019-06-26T09:08:06.455Z,99.90
2019-06-26T09:10:36.091Z,99.90
2019-06-26T09:13:05.582Z,99.90
2019-06-26T09:15:35.050Z,99.90
2019-06-26T09:18:04.553Z,99.90
2019-06-26T09:20:41.027Z,99.90
2019-06-26T09:23:10.465Z,99.90
2019-06-26T09:25:39.783Z,99.90
2019-06-26T09:28:09.303Z,99.90
2019-06-26T09:30:38.749Z,99.90
2019-06-26T09:33:08.240Z,99.90
2019-06-26T09:35:37.755Z,99.90
2019-06-26T09:38:07.282Z,99.90
2019-06-26T09:40:36.846Z,99.90
2019-06-26T09:43:06.390Z,99.90
2019-06-26T09:45:36.010Z,99.90
2019-06-26T09:48:05.515Z,99.90
2019-06-26T09:50:39.945Z,99.90
2019-06-26T09:53:09.562Z,99.90
2019-06-26T09:55:39.042Z,99.90
2019-06-26T09:58:08.546Z,99.90
2019-06-26T10:00:38.060Z,99.90
2019-06-26T10:03:07.643Z,99.90
2019-06-26T10:05:37.272Z,99.90
2019-06-26T10:08:07.103Z,99.90
2019-06-26T10:10:36.592Z,99.90
2019-06-26T10:13:06.251Z,99.90
2019-06-26T10:15:35.801Z,99.90
2019-06-26T10:18:05.616Z,99.90
2019-06-26T10:20:35.188Z,99.90
2019-06-26T10:23:04.693Z,99.90
2019-06-26T10:25:34.245Z,99.90
2019-06-26T10:30:52.139Z,99.90
2019-06-26T10:33:21.648Z,99.90
2019-06-26T10:35:51.110Z,99.00
2019-06-26T10:38:20.633Z,97.30
2019-06-26T10:40:50.108Z,97.00
2019-06-26T10:43:19.550Z,97.00
2019-06-26T10:45:49.109Z,97.40
2019-06-26T10:48:18.625Z,95.80
2019-06-26T10:50:56.925Z,96.00
2019-06-26T10:53:19.328Z,95.00
2019-06-26T10:55:48.802Z,94.00
2019-06-26T10:58:18.315Z,93.50
2019-06-26T11:00:47.889Z,93.00
2019-06-26T11:03:17.394Z,91.60
2019-06-26T11:05:46.897Z,91.60
2019-06-26T11:08:16.458Z,92.10
2019-06-26T11:10:46.061Z,89.30
2019-06-26T11:13:15.561Z,86.90
2019-06-26T11:15:45.074Z,87.60
2019-06-26T11:18:14.722Z,88.20
2019-06-26T11:20:44.187Z,85.10
2019-06-26T11:23:13.724Z,87.30
2019-06-26T11:25:44.397Z,78.40
2019-06-26T11:28:14.531Z,81.00
2019-06-26T11:30:44.037Z,74.60
2019-06-26T11:33:13.493Z,74.60
2019-06-26T11:35:42.979Z,72.40
2019-06-26T11:38:12.493Z,73.60
2019-06-26T11:40:42.258Z,72.30
2019-06-26T11:43:31.159Z,69.60
2019-06-26T11:46:00.707Z,69.60
2019-06-26T11:48:30.195Z,67.60
2019-06-26T11:50:59.700Z,65.70
2019-06-26T11:53:29.177Z,65.30
2019-06-26T11:55:58.764Z,68.10
2019-06-26T11:58:28.271Z,63.90
2019-06-26T12:00:57.808Z,62.70
2019-06-26T12:03:27.811Z,64.00
2019-06-26T12:06:11.920Z,64.60
2019-06-26T12:08:28.517Z,68.00
2019-06-26T12:10:58.101Z,66.50
2019-06-26T12:13:27.581Z,66.00
2019-06-26T12:15:57.080Z,64.70
2019-06-26T12:18:26.573Z,66.50
2019-06-26T12:20:56.256Z,67.00
2019-06-26T12:23:25.768Z,65.50
2019-06-26T12:25:55.244Z,63.60
2019-06-26T12:28:24.751Z,64.50
2019-06-26T12:30:54.277Z,65.10
2019-06-26T12:33:23.787Z,63.80
2019-06-26T12:35:53.286Z,64.40
2019-06-26T12:38:22.893Z,68.00
2019-06-26T12:40:52.368Z,66.30
2019-06-26T12:43:21.913Z,62.70
2019-06-26T12:45:51.554Z,64.40
2019-06-26T12:48:21.132Z,61.70
2019-06-26T12:50:50.751Z,62.40
2019-06-26T12:53:20.234Z,61.80
2019-06-26T12:55:49.866Z,64.10
2019-06-26T12:58:20.225Z,64.80
2019-06-26T13:00:49.987Z,62.20
2019-06-26T13:03:19.583Z,60.80
2019-06-26T13:05:49.054Z,60.10
2019-06-26T13:08:18.558Z,60.20
2019-06-26T13:10:50.054Z,63.20
2019-06-26T13:13:19.251Z,60.50
2019-06-26T13:15:51.109Z,60.50
2019-06-26T13:18:19.862Z,56.40
2019-06-26T13:20:53.370Z,56.60
2019-06-26T13:23:20.664Z,55.70
2019-06-26T13:25:50.205Z,53.40
2019-06-26T13:28:19.679Z,50.00
2019-06-26T13:30:52.982Z,49.90
2019-06-26T13:33:20.486Z,47.10
2019-06-26T13:35:50.335Z,46.30
2019-06-26T13:38:19.897Z,47.70
2019-06-26T13:40:49.388Z,48.40
2019-06-26T13:43:18.866Z,46.90
2019-06-26T13:45:48.430Z,47.50
2019-06-26T13:48:17.920Z,48.60
2019-06-26T13:50:47.464Z,47.10
2019-06-26T13:53:16.943Z,46.60
2019-06-26T13:55:46.453Z,45.20
2019-06-26T13:58:15.938Z,45.30
2019-06-26T14:00:45.449Z,45.90
2019-06-26T14:03:14.941Z,44.30
2019-06-26T14:05:44.512Z,45.40
2019-06-26T14:08:14.029Z,46.40
2019-06-26T14:10:43.503Z,47.50
2019-06-26T14:13:12.978Z,46.60
2019-06-26T14:15:42.516Z,46.00
2019-06-26T14:18:11.981Z,45.80
2019-06-26T14:20:41.483Z,45.20
2019-06-26T14:23:11.095Z,44.90
2019-06-26T14:25:40.572Z,45.30
2019-06-26T14:28:10.053Z,47.60
2019-06-26T14:30:39.637Z,46.20
2019-06-26T14:33:09.172Z,46.40
2019-06-26T14:35:38.693Z,49.20
2019-06-26T14:38:08.203Z,47.60
2019-06-26T14:40:37.679Z,50.60
2019-06-26T14:43:09.801Z,49.00
2019-06-26T14:45:39.272Z,49.00
2019-06-26T14:48:08.776Z,49.80
2019-06-26T14:50:38.294Z,51.10
2019-06-26T14:53:07.945Z,51.60
2019-06-26T14:55:37.418Z,49.90
2019-06-26T14:58:06.939Z,51.60
2019-06-26T15:00:36.621Z,52.90
2019-06-26T15:03:06.100Z,52.00
2019-06-26T15:05:35.609Z,52.90
2019-06-26T15:08:05.077Z,51.60
2019-06-26T15:10:34.667Z,52.10
2019-06-26T15:13:04.170Z,52.50
2019-06-26T15:15:33.661Z,50.70
2019-06-26T15:18:03.093Z,51.80
2019-06-26T15:20:32.617Z,50.60
2019-06-26T15:23:02.207Z,51.90
2019-06-26T15:25:31.756Z,53.00
2019-06-26T15:28:01.262Z,52.60
2019-06-26T15:30:31.077Z,52.70
2019-06-26T15:33:00.656Z,52.20
2019-06-26T15:35:30.359Z,52.40
2019-06-26T15:37:59.915Z,52.90
2019-06-26T15:40:29.397Z,51.40
2019-06-26T15:42:58.891Z,51.50
2019-06-26T15:45:28.376Z,52.00
2019-06-26T15:47:57.887Z,53.40
2019-06-26T15:50:27.470Z,53.90
2019-06-26T15:52:56.996Z,53.90
2019-06-26T15:55:26.483Z,53.90
2019-06-26T15:57:55.958Z,55.30
2019-06-26T16:00:25.466Z,56.30
2019-06-26T16:02:55.085Z,55.90
2019-06-26T16:05:24.690Z,55.20
2019-06-26T16:07:54.295Z,57.20
2019-06-26T16:10:23.845Z,57.60
2019-06-26T16:12:53.366Z,57.00
2019-06-26T16:15:22.989Z,57.30
2019-06-26T16:18:06.247Z,57.20
2019-06-26T16:20:35.853Z,56.90
2019-06-26T16:23:06.077Z,56.20
2019-06-26T16:25:35.694Z,56.60
2019-06-26T16:28:06.171Z,58.40
2019-06-26T16:30:35.977Z,58.00
2019-06-26T16:33:05.493Z,58.10
2019-06-26T16:35:35.050Z,57.40
2019-06-26T16:38:04.515Z,57.60
2019-06-26T16:40:34.250Z,57.70
2019-06-26T16:43:03.764Z,57.90
2019-06-26T16:45:33.377Z,58.20
2019-06-26T16:48:02.883Z,59.80
2019-06-26T16:50:32.717Z,60.40
2019-06-26T16:53:02.229Z,61.90
2019-06-26T16:55:31.782Z,61.90
2019-06-26T16:58:01.303Z,61.40
2019-06-26T17:00:31.074Z,62.50
2019-06-26T17:03:00.770Z,63.30
2019-06-26T17:05:30.295Z,63.60
2019-06-26T17:07:59.753Z,64.30
2019-06-26T17:10:29.260Z,65.30
2019-06-26T17:12:58.901Z,66.10
2019-06-26T17:15:28.532Z,66.80
2019-06-26T17:17:58.050Z,67.00
2019-06-26T17:20:27.543Z,66.80
2019-06-26T17:23:05.729Z,67.20
2019-06-26T17:25:28.328Z,66.20
2019-06-26T17:27:57.862Z,67.50
2019-06-26T17:30:27.496Z,66.70
2019-06-26T17:32:57.000Z,67.70
2019-06-26T17:35:26.479Z,66.50
2019-06-26T17:37:55.981Z,66.70
2019-06-26T17:40:25.395Z,68.10
2019-06-26T17:43:08.193Z,69.10
2019-06-26T17:45:26.128Z,68.60
2019-06-26T17:47:55.610Z,69.00
2019-06-26T17:50:25.234Z,70.50
2019-06-26T17:52:54.739Z,70.70
2019-06-26T17:55:24.218Z,72.00
2019-06-26T17:57:55.587Z,71.90
2019-06-26T18:00:29.781Z,72.70
2019-06-26T18:02:59.278Z,73.50
2019-06-26T18:05:28.789Z,73.60
2019-06-26T18:07:58.291Z,74.20
2019-06-26T18:10:27.837Z,74.90
2019-06-26T18:12:57.324Z,75.20
2019-06-26T18:15:26.793Z,74.80
2019-06-26T18:17:56.297Z,75.10
2019-06-26T18:20:25.791Z,75.50
2019-06-26T18:23:06.472Z,76.10
2019-06-26T18:25:26.596Z,75.40
2019-06-26T18:27:56.420Z,76.60
2019-06-26T18:30:26.051Z,77.80
2019-06-26T18:32:55.543Z,77.60
2019-06-26T18:35:25.047Z,78.20
2019-06-26T18:37:54.553Z,79.90
2019-06-26T18:40:23.962Z,80.70
2019-06-26T18:42:53.480Z,79.70
2019-06-26T18:45:23.064Z,81.50
2019-06-26T18:47:52.857Z,80.60
2019-06-26T18:50:22.432Z,80.70
2019-06-26T18:52:51.936Z,81.90
2019-06-26T18:55:21.413Z,82.50
2019-06-26T18:57:50.929Z,83.00
2019-06-26T19:00:20.426Z,83.50
2019-06-26T19:02:50.120Z,83.80
2019-06-26T19:05:19.584Z,84.00
2019-06-26T19:07:49.087Z,84.40
2019-06-26T19:10:18.553Z,85.20
2019-06-26T19:12:48.073Z,85.50
2019-06-26T19:15:17.611Z,87.80
2019-06-26T19:17:47.108Z,86.60
2019-06-26T19:20:16.601Z,88.10
2019-06-26T19:22:47.539Z,88.90
2019-06-26T19:25:17.317Z,89.00
2019-06-26T19:27:46.862Z,88.60
2019-06-26T19:30:17.901Z,90.10
2019-06-26T19:32:47.390Z,90.30
2019-06-26T19:35:19.232Z,90.50
2019-06-26T19:37:48.115Z,91.20
2019-06-26T19:40:17.608Z,92.00
2019-06-26T19:42:47.129Z,92.60
2019-06-26T19:45:16.624Z,93.10
2019-06-26T19:47:46.107Z,93.80
2019-06-26T19:50:15.599Z,94.50
2019-06-26T19:52:45.089Z,95.20
2019-06-26T19:55:15.193Z,95.80
2019-06-26T19:57:44.687Z,96.60
2019-06-26T20:00:14.173Z,97.20
2019-06-26T20:02:43.809Z,97.80
2019-06-26T20:05:13.402Z,98.50
2019-06-26T20:07:42.882Z,99.20
2019-06-26T20:10:12.290Z,99.90
2019-06-26T20:12:41.789Z,99.90
2019-06-26T20:15:11.438Z,99.90
2019-06-26T20:17:40.932Z,99.90
2019-06-26T20:20:10.431Z,99.90
2019-06-26T20:22:41.767Z,99.90
2019-06-26T20:25:11.652Z,99.90
2019-06-26T20:27:41.164Z,99.90
2019-06-26T20:30:10.660Z,99.90
2019-06-26T20:32:40.177Z,99.90
2019-06-26T20:35:09.953Z,99.90
2019-06-26T20:37:39.494Z,99.90
2019-06-26T20:40:09.330Z,99.90
2019-06-26T20:42:38.837Z,99.90
2019-06-26T20:45:08.643Z,99.90
2019-06-26T20:47:38.264Z,99.90
2019-06-26T20:50:08.206Z,99.90
2019-06-26T20:52:37.607Z,99.90
2019-06-26T20:55:07.431Z,99.90
2019-06-26T20:57:37.190Z,99.90
2019-06-26T21:00:08.086Z,99.90
2019-06-26T21:02:37.591Z,99.90
2019-06-26T21:05:07.877Z,99.90
2019-06-26T21:07:37.424Z,99.90
2019-06-26T21:10:06.885Z,99.90
2019-06-26T21:12:36.402Z,99.90
2019-06-26T21:15:07.792Z,99.90
2019-06-26T21:17:37.491Z,99.90
2019-06-26T21:20:10.193Z,99.90
2019-06-26T21:22:39.833Z,99.90
2019-06-26T21:25:18.480Z,99.90
2019-06-26T21:27:40.537Z,99.90
2019-06-26T21:30:10.053Z,99.90
2019-06-26T21:32:39.603Z,99.90
2019-06-26T21:35:09.100Z,99.90
2019-06-26T21:37:38.613Z,99.90
2019-06-26T21:40:08.126Z,99.90
2019-06-26T21:42:38.481Z,99.90
2019-06-26T21:45:07.966Z,99.90
2019-06-26T21:47:37.462Z,99.90
2019-06-26T21:50:07.094Z,99.90
2019-06-26T21:52:36.594Z,99.90
2019-06-26T21:55:06.867Z,99.90
2019-06-26T21:57:36.510Z,99.90
2019-06-26T22:00:09.295Z,99.90
2019-06-26T22:02:38.887Z,99.90
2019-06-26T22:05:08.654Z,99.90
2019-06-26T22:07:38.234Z,99.90
2019-06-26T22:10:08.547Z,99.90
2019-06-26T22:12:38.085Z,99.90
2019-06-26T22:15:07.707Z,99.90
2019-06-26T22:17:37.147Z,99.90
2019-06-26T22:20:12.144Z,99.90
2019-06-26T22:22:39.245Z,99.90
2019-06-26T22:25:10.278Z,99.90
2019-06-26T22:27:39.804Z,99.90
2019-06-26T22:30:09.291Z,99.90
2019-06-26T22:32:38.780Z,99.90
2019-06-26T22:35:08.267Z,99.90
2019-06-26T22:37:37.757Z,99.90
2019-06-26T22:40:07.258Z,99.90
2019-06-26T22:42:36.737Z,99.90
2019-06-26T22:45:06.186Z,99.90
2019-06-26T22:47:35.607Z,99.90
2019-06-26T22:50:06.893Z,99.90
2019-06-26T22:52:36.590Z,99.90
2019-06-26T22:55:07.387Z,99.90
2019-06-26T22:57:37.109Z,99.90
2019-06-26T23:00:09.204Z,99.90
2019-06-26T23:02:38.734Z,99.90
2019-06-26T23:05:08.741Z,99.90
2019-06-26T23:07:38.232Z,99.90
2019-06-26T23:10:08.860Z,99.90
2019-06-26T23:12:57.631Z,99.90
2019-06-26T23:15:27.061Z,99.90
2019-06-26T23:17:57.158Z,99.90
2019-06-26T23:20:26.645Z,99.90
2019-06-26T23:22:56.190Z,99.90
2019-06-26T23:25:25.726Z,99.90
2019-06-26T23:27:55.202Z,99.90
2019-06-26T23:30:24.720Z,99.90
2019-06-26T23:32:54.140Z,99.90
2019-06-26T23:35:23.654Z,99.90
2019-06-26T23:37:53.095Z,99.90
2019-06-26T23:40:22.577Z,99.90
2019-06-26T23:42:51.982Z,99.90
2019-06-26T23:45:21.480Z,99.90
2019-06-26T23:47:50.899Z,99.90
2019-06-26T23:50:20.411Z,99.90
2019-06-26T23:52:49.941Z,99.90
2019-06-26T23:55:19.347Z,99.90
2019-06-26T23:57:59.192Z,99.90
